Cashton, WI (54619)

8:27 PM CDT on July 22, 2017 (GMT -0500)
Rowan | | Change Station
Active Advisory: Special Statement

Elev 1365 ft 43.80 °N, 90.86 °W | Updated 2 seconds ago

Partly Cloudy
Partly Cloudy
75.0 °F
Feels Like 75 °F
N
4.0
Wind Variable Wind from SW

Today
High -- | Low -- °F
--% Chance of Precip.
Yesterday
High -- | Low -- °F
Precip. -- in
Pressure 29.84 in
Visibility 10.0 miles
Clouds Clear
Heat Index 75 °F
Dew Point 70 °F
Humidity 86%
Rainfall 0.00 in
Snow Depth Not available.
5:41 AM 8:36 PM
Waning Crescent, 0% visible
METAR KY51 230115Z AUTO 21003KT 10SM CLR 24/23 A2984 RMK AO1 T02410228
Pressure 29.84 in
Visibility 10.0 miles
Clouds Clear
Heat Index 75 °F
Dew Point 70 °F
Humidity 86%
Rainfall 0.00 in
Snow Depth Not available.
5:41 AM 8:36 PM
Waning Crescent, 0% visible
METAR KY51 230115Z AUTO 21003KT 10SM CLR 24/23 A2984 RMK AO1 T02410228

Get Your Daily Forecast Email!

Thanks for signing up!

Be on the lookout for a verification email in your inbox.

You'll start receiving severe weather alerts in your inbox..

×

10-Day Weather Forecast

Almanac

Astronomy

Jul. 22, 2017 Rise Set
Actual Time
Civil Twilight
Nautical Twilight
Astronomical Twilight
Moon
Length of Visible Light
Length of Day
Tomorrow will be .
, % of the Moon is Illuminated

Today's Extremes

State Highs State Lows

Community

WunderPhotos

Category 6

Welcome to Category 6. This is the collective home for Weather Underground's featured writeups by Dr. Jeff Masters (right), Bob Henson (left), Chris Burt, and other regular contributors.

Nearby

Air Quality

  Air Quality AQ Index Pollutant
Not available.

Snow Depth

Station Depth Elevation

Earthquake Activity

City Distance Mag. Time & Date
Minimum magnitude displayed is 2.5.

Coastal Water Temperatures

Place Temperature

Stations

Nearby Weather Stations

Station Location Temp. Windchill Dew Point Humidity Wind Precip. Elev Updated Type
                   

Watches & Warnings

Special Statement
Issued: 7:19 PM CDT Jul. 22, 2017 – National Weather Service

... Thunderstorms with strong wind gusts and small hail...

Scattered thunderstorms will move across the area through 9 PM.
The strongest storms will produce winds gusts to 45 mph and penny
size hail. Move indoors if a storm approaches your location. The
storms may intensify so keep a close eye on the weather this
evening.


Wetenkamp

719 PM CDT Sat Jul 22 2017

... Thunderstorms with strong wind gusts and small hail...

Scattered thunderstorms will move across the area through 9 PM.
The strongest storms will produce winds gusts to 45 mph and penny
size hail. Move indoors if a storm approaches your location. The
storms may intensify so keep a close eye on the weather this
evening.


Wetenkamp